createdAt,value
2024-02-11T00:00:40.474Z,95.10
2024-02-11T00:04:43.384Z,91.26
2024-02-11T00:08:45.008Z,88.66
2024-02-11T00:12:46.763Z,93.06
2024-02-11T00:16:48.609Z,92.41
2024-02-11T00:20:50.157Z,94.15
2024-02-11T00:24:51.786Z,94.78
2024-02-11T00:28:53.269Z,93.90
2024-02-11T00:32:57.935Z,94.54
2024-02-11T00:36:59.746Z,87.99
2024-02-11T00:41:02.176Z,91.27
2024-02-11T00:45:07.531Z,88.09
2024-02-11T00:49:10.398Z,85.40
2024-02-11T00:53:12.190Z,81.23
2024-02-11T00:57:13.797Z,88.48
2024-02-11T01:01:15.282Z,84.44
2024-02-11T01:05:17.217Z,91.73
2024-02-11T01:09:18.792Z,88.92
2024-02-11T01:13:20.279Z,88.25
2024-02-11T01:17:23.380Z,90.05
2024-02-11T01:21:24.864Z,84.04
2024-02-11T01:25:26.419Z,94.70
2024-02-11T01:29:27.880Z,94.40
2024-02-11T01:33:29.617Z,94.45
2024-02-11T01:37:31.252Z,95.75
2024-02-11T01:41:32.776Z,90.88
2024-02-11T01:45:36.713Z,88.34
2024-02-11T01:49:39.215Z,94.89
2024-02-11T01:53:41.998Z,85.04
2024-02-11T01:57:43.916Z,84.61
2024-02-11T02:01:46.259Z,89.16
2024-02-11T02:05:47.963Z,93.66
2024-02-11T02:09:52.603Z,96.47
2024-02-11T02:13:54.322Z,96.57
2024-02-11T02:17:56.042Z,97.45
2024-02-11T02:21:57.885Z,98.21
2024-02-11T02:26:04.207Z,97.13
2024-02-11T02:30:08.969Z,95.92
2024-02-11T02:34:10.685Z,96.12
2024-02-11T02:38:12.280Z,99.12
2024-02-11T02:42:14.003Z,99.70
2024-02-11T02:46:15.499Z,99.22
2024-02-11T02:50:17.192Z,99.41
2024-02-11T02:54:18.918Z,100.00
2024-02-11T02:58:20.408Z,100.00
2024-02-11T03:02:21.890Z,100.00
2024-02-11T03:06:23.510Z,99.38
2024-02-11T03:10:25.114Z,100.00
2024-02-11T03:14:26.583Z,98.50
2024-02-11T03:18:29.204Z,95.08
2024-02-11T03:22:31.249Z,97.12
2024-02-11T03:26:32.737Z,97.81
2024-02-11T03:30:36.585Z,100.00
2024-02-11T03:34:38.097Z,99.53
2024-02-11T03:38:39.574Z,100.00
2024-02-11T03:42:41.227Z,100.00
2024-02-11T03:46:42.829Z,100.00
2024-02-11T03:50:44.527Z,98.06
2024-02-11T03:54:46.443Z,95.35
2024-02-11T03:58:48.038Z,100.00
2024-02-11T04:02:49.489Z,99.16
2024-02-11T04:06:51.300Z,99.72
2024-02-11T04:10:53.568Z,100.00
2024-02-11T04:14:55.782Z,100.00
2024-02-11T04:18:57.572Z,98.98
2024-02-11T04:23:00.574Z,100.00
2024-02-11T04:27:02.444Z,100.00
2024-02-11T04:31:10.375Z,97.32
2024-02-11T04:35:15.995Z,96.67
2024-02-11T04:39:17.879Z,100.00
2024-02-11T04:43:19.390Z,98.35
2024-02-11T04:47:21.509Z,98.65
2024-02-11T04:51:24.030Z,95.13
2024-02-11T04:55:30.491Z,95.03
2024-02-11T04:59:33.699Z,96.06
2024-02-11T05:03:35.162Z,96.38
2024-02-11T05:07:36.758Z,92.64
2024-02-11T05:11:38.520Z,85.90
2024-02-11T05:15:42.183Z,96.70
2024-02-11T05:19:44.032Z,96.13
2024-02-11T05:23:48.536Z,92.35
2024-02-11T05:27:59.833Z,91.97
2024-02-11T05:32:01.329Z,93.17
2024-02-11T05:36:08.964Z,98.92
2024-02-11T05:40:11.674Z,93.65
2024-02-11T05:44:13.225Z,91.45
2024-02-11T05:48:15.405Z,95.75
2024-02-11T05:52:17.199Z,93.86
2024-02-11T05:56:20.198Z,89.48
2024-02-11T06:00:31.642Z,89.24
2024-02-11T06:04:33.265Z,89.73
2024-02-11T06:08:37.044Z,86.51
2024-02-11T06:12:40.579Z,92.02
2024-02-11T06:16:42.116Z,87.86
2024-02-11T06:20:43.726Z,91.20
2024-02-11T06:24:45.432Z,94.70
2024-02-11T06:28:46.940Z,90.64
2024-02-11T06:32:51.480Z,90.99
2024-02-11T06:36:54.152Z,94.14
2024-02-11T06:40:55.720Z,88.98
2024-02-11T06:44:58.088Z,94.41
2024-02-11T06:49:01.712Z,99.30
2024-02-11T06:53:03.399Z,100.00
2024-02-11T06:57:06.322Z,95.63
2024-02-11T07:01:11.910Z,96.37
2024-02-11T07:05:15.378Z,97.88
2024-02-11T07:09:21.807Z,96.78
2024-02-11T07:13:23.374Z,93.62
2024-02-11T07:17:25.249Z,98.84
2024-02-11T07:21:29.308Z,94.82
2024-02-11T07:25:32.002Z,95.79
2024-02-11T07:29:34.590Z,95.23
2024-02-11T07:33:36.204Z,92.04
2024-02-11T07:37:37.812Z,92.34
2024-02-11T07:41:42.222Z,94.78
2024-02-11T07:45:45.013Z,100.00
2024-02-11T07:49:46.912Z,100.00
2024-02-11T07:53:50.373Z,99.55
2024-02-11T07:57:52.429Z,98.76
2024-02-11T08:01:56.526Z,99.77
2024-02-11T08:05:58.131Z,99.95
2024-02-11T08:09:59.642Z,100.00
2024-02-11T08:14:01.278Z,100.00
2024-02-11T08:18:07.637Z,100.00
2024-02-11T08:22:09.847Z,100.00
2024-02-11T08:26:12.022Z,100.00
2024-02-11T08:30:13.788Z,99.45
2024-02-11T08:34:16.280Z,97.64
2024-02-11T08:38:17.878Z,95.63
2024-02-11T08:42:19.737Z,96.27
2024-02-11T08:46:21.269Z,95.93
2024-02-11T08:50:23.595Z,98.56
2024-02-11T08:54:25.676Z,92.53
2024-02-11T08:58:29.051Z,95.24
2024-02-11T09:02:32.306Z,89.89
2024-02-11T09:06:34.226Z,98.27
2024-02-11T09:10:35.756Z,98.32
2024-02-11T09:14:39.552Z,93.51
2024-02-11T09:18:41.276Z,84.75
2024-02-11T09:22:43.238Z,88.87
2024-02-11T09:26:44.882Z,83.40
2024-02-11T09:30:46.354Z,91.27
2024-02-11T09:34:48.662Z,91.39
2024-02-11T09:38:50.231Z,84.27
2024-02-11T09:42:52.250Z,90.04
2024-02-11T09:46:56.362Z,88.19
2024-02-11T09:50:59.683Z,84.74
2024-02-11T09:55:03.808Z,87.91
2024-02-11T09:59:05.726Z,91.96
2024-02-11T10:03:09.106Z,91.26
2024-02-11T10:07:24.024Z,91.33
2024-02-11T10:11:27.765Z,96.54
2024-02-11T10:15:36.119Z,91.81
2024-02-11T10:19:37.590Z,90.81
2024-02-11T10:23:40.817Z,95.28
2024-02-11T10:27:43.364Z,99.22
2024-02-11T10:31:48.184Z,99.20
2024-02-11T10:35:49.869Z,98.78
2024-02-11T10:39:51.695Z,95.81
2024-02-11T10:43:53.652Z,99.48
2024-02-11T10:47:55.206Z,95.83
2024-02-11T10:52:03.778Z,94.13
2024-02-11T10:56:09.726Z,90.97
2024-02-11T11:00:14.082Z,94.12
2024-02-11T11:04:22.063Z,93.58
2024-02-11T11:08:24.680Z,90.45
2024-02-11T11:12:26.451Z,95.23
2024-02-11T11:16:28.852Z,90.90
2024-02-11T11:20:34.525Z,92.51
2024-02-11T11:24:39.393Z,87.55
2024-02-11T11:28:43.692Z,92.16
2024-02-11T11:32:50.380Z,95.93
2024-02-11T11:36:52.753Z,97.50
2024-02-11T11:40:57.680Z,91.61
2024-02-11T11:45:09.095Z,98.16
2024-02-11T11:49:10.682Z,95.43
2024-02-11T11:53:22.295Z,99.72
2024-02-11T11:57:28.672Z,96.07
2024-02-11T12:01:32.039Z,95.08
2024-02-11T12:05:33.738Z,98.34
2024-02-11T12:09:35.492Z,95.16
2024-02-11T12:13:38.910Z,94.43
2024-02-11T12:17:40.632Z,90.14
2024-02-11T12:21:42.264Z,89.91
2024-02-11T12:25:44.164Z,91.79
2024-02-11T12:29:57.651Z,90.18
2024-02-11T12:34:02.216Z,90.53
2024-02-11T12:38:05.044Z,85.85
2024-02-11T12:42:06.787Z,87.29
2024-02-11T12:46:11.407Z,83.83
2024-02-11T12:50:13.013Z,86.52
2024-02-11T12:54:14.855Z,89.36
2024-02-11T12:58:16.462Z,87.32
2024-02-11T13:02:18.600Z,86.38
2024-02-11T13:06:20.247Z,93.94
2024-02-11T13:10:21.780Z,94.43
2024-02-11T13:14:23.571Z,90.83
2024-02-11T13:18:25.374Z,96.02
2024-02-11T13:22:26.952Z,91.24
2024-02-11T13:26:28.658Z,89.40
2024-02-11T13:30:32.080Z,89.15
2024-02-11T13:34:33.587Z,81.68
2024-02-11T13:38:35.101Z,84.30
2024-02-11T13:42:36.721Z,92.42
2024-02-11T13:46:38.191Z,90.46
2024-02-11T13:50:40.590Z,86.02
2024-02-11T13:54:42.369Z,88.94
2024-02-11T13:58:45.242Z,84.15
2024-02-11T14:02:47.155Z,86.90
2024-02-11T14:06:48.809Z,86.17
2024-02-11T14:10:50.329Z,82.54
2024-02-11T14:14:52.819Z,88.55
2024-02-11T14:18:55.296Z,89.82
2024-02-11T14:22:56.963Z,91.75
2024-02-11T14:27:01.348Z,89.00
2024-02-11T14:31:02.960Z,83.95
2024-02-11T14:35:07.921Z,84.30
2024-02-11T14:39:10.011Z,83.64
2024-02-11T14:43:11.491Z,88.59
2024-02-11T14:47:13.297Z,86.17
2024-02-11T14:51:16.635Z,87.15
2024-02-11T14:55:19.190Z,86.78
2024-02-11T14:59:21.283Z,87.18
2024-02-11T15:03:23.359Z,84.58
2024-02-11T15:07:26.614Z,85.68
2024-02-11T15:11:30.231Z,84.87
2024-02-11T15:15:31.769Z,87.87
2024-02-11T15:19:36.253Z,91.49
2024-02-11T15:23:38.462Z,92.95
2024-02-11T15:27:40.549Z,91.25
2024-02-11T15:31:42.242Z,86.94
2024-02-11T15:35:49.864Z,88.30
2024-02-11T15:39:57.532Z,83.95
2024-02-11T15:44:01.407Z,84.06
2024-02-11T15:48:06.205Z,78.19
2024-02-11T15:52:11.004Z,87.51
2024-02-11T15:56:12.892Z,87.89
2024-02-11T16:00:20.903Z,84.74
2024-02-11T16:04:23.931Z,87.13
2024-02-11T16:08:25.641Z,85.58
2024-02-11T16:12:27.686Z,83.75
2024-02-11T16:16:29.301Z,81.52
2024-02-11T16:20:32.309Z,84.51
2024-02-11T16:24:36.190Z,83.41
2024-02-11T16:28:37.994Z,86.46
2024-02-11T16:32:39.725Z,91.43
2024-02-11T16:36:42.867Z,89.04
2024-02-11T16:40:44.531Z,92.61
2024-02-11T16:44:52.060Z,90.85
2024-02-11T16:48:53.607Z,92.75
2024-02-11T16:52:55.181Z,87.74
2024-02-11T16:56:59.307Z,84.94
2024-02-11T17:01:04.417Z,94.47
2024-02-11T17:05:09.410Z,93.10
2024-02-11T17:09:11.065Z,89.83
2024-02-11T17:13:14.555Z,90.74
2024-02-11T17:17:16.948Z,85.32
2024-02-11T17:21:18.778Z,88.07
2024-02-11T17:25:20.360Z,89.42
2024-02-11T17:29:21.916Z,85.09
2024-02-11T17:33:25.055Z,88.97
2024-02-11T17:37:26.631Z,86.34
2024-02-11T17:41:29.650Z,87.19
2024-02-11T17:45:31.263Z,81.78
2024-02-11T17:49:34.995Z,84.15
2024-02-11T17:53:44.868Z,88.24
2024-02-11T17:57:51.680Z,89.50
2024-02-11T18:01:53.915Z,89.13
2024-02-11T18:05:55.995Z,81.44
2024-02-11T18:09:57.812Z,82.51
2024-02-11T18:13:59.722Z,88.10
2024-02-11T18:18:01.797Z,84.43
2024-02-11T18:22:05.241Z,86.93
2024-02-11T18:26:10.299Z,85.46
2024-02-11T18:30:15.006Z,82.45
2024-02-11T18:34:16.543Z,85.77
2024-02-11T18:38:19.893Z,87.29
2024-02-11T18:42:21.748Z,83.13
2024-02-11T18:46:23.387Z,85.99
2024-02-11T18:50:25.739Z,84.12
2024-02-11T18:54:27.583Z,82.70
2024-02-11T18:58:32.727Z,82.11
2024-02-11T19:02:35.941Z,86.93
2024-02-11T19:06:37.701Z,88.24
2024-02-11T19:10:39.756Z,89.98
2024-02-11T19:14:41.301Z,78.45
2024-02-11T19:18:42.818Z,84.31
2024-02-11T19:22:46.331Z,79.53
2024-02-11T19:26:47.843Z,87.73
2024-02-11T19:30:49.306Z,89.38
2024-02-11T19:34:54.781Z,93.12
2024-02-11T19:38:56.932Z,86.97
2024-02-11T19:42:58.926Z,84.97
2024-02-11T19:47:00.705Z,88.49
2024-02-11T19:51:02.533Z,86.85
2024-02-11T19:55:05.237Z,81.48
2024-02-11T19:59:08.221Z,86.01
2024-02-11T20:03:14.407Z,87.19
2024-02-11T20:07:16.041Z,84.43
2024-02-11T20:11:17.656Z,76.18
2024-02-11T20:15:19.577Z,85.47
2024-02-11T20:19:24.006Z,85.82
2024-02-11T20:23:27.144Z,80.55
2024-02-11T20:27:28.830Z,81.32
2024-02-11T20:31:30.344Z,86.22
2024-02-11T20:35:31.969Z,81.25
2024-02-11T20:39:33.672Z,81.59
2024-02-11T20:43:35.472Z,76.59
2024-02-11T20:47:38.347Z,79.93
2024-02-11T20:51:39.871Z,81.37
2024-02-11T20:55:43.123Z,75.94
2024-02-11T20:59:44.684Z,73.78
2024-02-11T21:03:47.074Z,79.92
2024-02-11T21:07:49.110Z,77.23
2024-02-11T21:11:50.622Z,81.36
2024-02-11T21:15:52.353Z,78.34
2024-02-11T21:19:54.107Z,74.47
2024-02-11T21:23:56.419Z,76.05
2024-02-11T21:27:58.983Z,77.79
2024-02-11T21:32:01.757Z,82.15
2024-02-11T21:36:04.833Z,81.45
2024-02-11T21:40:14.978Z,77.80
2024-02-11T21:44:19.988Z,76.02
2024-02-11T21:48:24.073Z,80.32
2024-02-11T21:52:25.722Z,85.81
2024-02-11T21:56:27.309Z,82.86
2024-02-11T22:00:32.235Z,80.57
2024-02-11T22:04:34.264Z,78.60
2024-02-11T22:08:35.982Z,71.94
2024-02-11T22:12:38.612Z,77.00
2024-02-11T22:16:41.127Z,74.12
2024-02-11T22:20:42.975Z,72.83
2024-02-11T22:24:44.480Z,72.75
2024-02-11T22:28:46.011Z,70.51
2024-02-11T22:32:47.608Z,67.61
2024-02-11T22:36:49.244Z,75.83
2024-02-11T22:40:51.588Z,74.67
2024-02-11T22:44:53.094Z,72.16
2024-02-11T22:48:55.310Z,72.27
2024-02-11T22:52:56.956Z,73.36
2024-02-11T22:57:00.054Z,74.40
2024-02-11T23:01:02.746Z,68.07
2024-02-11T23:05:05.917Z,71.29
2024-02-11T23:09:10.352Z,71.70
2024-02-11T23:13:11.810Z,65.19
2024-02-11T23:17:13.293Z,66.00
2024-02-11T23:21:14.781Z,66.37
2024-02-11T23:25:17.412Z,65.68
2024-02-11T23:29:19.053Z,63.06
2024-02-11T23:33:22.727Z,61.18
2024-02-11T23:37:24.245Z,60.69
2024-02-11T23:41:25.766Z,61.62
2024-02-11T23:45:27.678Z,58.42
2024-02-11T23:49:33.016Z,58.49
2024-02-11T23:53:34.931Z,58.84
2024-02-11T23:57:41.392Z,58.05
